createdAt,value
2019-02-28T00:01:47.793Z,100679.14
2019-02-28T00:04:17.542Z,100690.91
2019-02-28T00:06:47.350Z,100686.10
2019-02-28T00:09:17.310Z,100686.56
2019-02-28T00:11:46.905Z,100691.28
2019-02-28T00:14:16.604Z,100682.02
2019-02-28T00:16:46.503Z,100682.02
2019-02-28T00:19:16.195Z,100690.23
2019-02-28T00:21:45.896Z,100694.66
2019-02-28T00:24:15.773Z,100694.66
2019-02-28T00:26:47.663Z,100685.47
2019-02-28T00:29:17.149Z,100693.27
2019-02-28T00:31:49.795Z,100692.42
2019-02-28T00:34:18.501Z,100686.27
2019-02-28T00:36:50.309Z,100681.37
2019-02-28T00:39:19.941Z,100669.52
2019-02-28T00:41:49.526Z,100671.20
2019-02-28T00:44:19.163Z,100676.89
2019-02-28T00:46:48.979Z,100672.50
2019-02-28T00:49:18.584Z,100672.08
2019-02-28T00:51:48.236Z,100679.09
2019-02-28T00:54:18.075Z,100673.95
2019-02-28T00:56:51.639Z,100670.41
2019-02-28T00:59:19.334Z,100662.15
2019-02-28T01:01:49.020Z,100674.42
2019-02-28T01:04:18.710Z,100674.42
2019-02-28T01:06:48.691Z,100681.92
2019-02-28T01:09:18.547Z,100677.59
2019-02-28T01:11:48.236Z,100677.63
2019-02-28T01:14:18.188Z,100663.72
2019-02-28T01:16:50.237Z,100668.98
2019-02-28T01:19:19.597Z,100661.95
2019-02-28T01:21:49.305Z,100661.45
2019-02-28T01:24:18.992Z,100661.45
2019-02-28T01:26:49.040Z,100666.71
2019-02-28T01:29:18.741Z,100648.45
2019-02-28T01:31:48.396Z,100641.42
2019-02-28T01:34:18.160Z,100642.69
2019-02-28T01:36:48.711Z,100633.58
2019-02-28T01:39:21.342Z,100633.58
2019-02-28T01:41:58.134Z,100626.05
2019-02-28T01:44:28.212Z,100637.42
2019-02-28T01:46:58.181Z,100643.53
2019-02-28T01:49:34.955Z,100643.53
2019-02-28T01:52:09.665Z,100638.26
2019-02-28T01:54:36.475Z,100630.04
2019-02-28T01:57:10.522Z,100630.04
2019-02-28T01:59:40.258Z,100643.95
2019-02-28T02:02:12.970Z,100635.61
2019-02-28T02:04:43.207Z,100635.61
2019-02-28T02:07:14.478Z,100639.86
2019-02-28T02:09:46.080Z,100636.41
2019-02-28T02:12:15.825Z,100646.86
2019-02-28T02:14:45.802Z,100646.01
2019-02-28T02:17:15.554Z,100637.30
2019-02-28T02:19:49.338Z,100619.89
2019-02-28T02:22:17.879Z,100609.77
2019-02-28T02:24:47.738Z,100609.77
2019-02-28T02:27:19.535Z,100620.86
2019-02-28T02:29:49.121Z,100620.86
2019-02-28T02:32:18.849Z,100630.35
2019-02-28T02:34:48.486Z,100638.34
2019-02-28T02:37:18.309Z,100643.71
2019-02-28T02:39:50.102Z,100649.50
2019-02-28T02:42:19.576Z,100636.08
2019-02-28T02:44:49.114Z,100635.97
2019-02-28T02:47:18.602Z,100637.13
2019-02-28T02:49:56.099Z,100642.41
2019-02-28T02:52:25.835Z,100634.16
2019-02-28T02:54:52.887Z,100634.16
2019-02-28T02:57:22.786Z,100635.98
2019-02-28T02:59:52.507Z,100640.25
2019-02-28T03:02:22.267Z,100633.91
2019-02-28T03:04:57.921Z,100630.72
2019-02-28T03:07:24.945Z,100624.81
2019-02-28T03:09:54.747Z,100624.81
2019-02-28T03:12:24.526Z,100624.59
2019-02-28T03:14:54.184Z,100620.95
2019-02-28T03:17:23.792Z,100629.02
2019-02-28T03:19:53.517Z,100629.02
2019-02-28T03:22:28.378Z,100628.61
2019-02-28T03:24:54.760Z,100624.69
2019-02-28T03:27:24.399Z,100624.69
2019-02-28T03:29:54.048Z,100627.02
2019-02-28T03:32:23.917Z,100627.02
2019-02-28T03:34:58.035Z,100631.92
2019-02-28T03:37:25.043Z,100631.92
2019-02-28T03:40:02.484Z,100627.48
2019-02-28T03:42:28.871Z,100633.23
2019-02-28T03:44:58.248Z,100643.17
2019-02-28T03:47:28.562Z,100643.17
2019-02-28T03:49:59.427Z,100654.05
2019-02-28T03:52:29.561Z,100648.47
2019-02-28T03:55:03.385Z,100648.47
2019-02-28T03:57:31.169Z,100654.50
2019-02-28T04:00:07.773Z,100647.52
2019-02-28T04:02:37.650Z,100643.25
2019-02-28T04:05:07.911Z,100643.25
2019-02-28T04:07:37.562Z,100647.16
2019-02-28T04:10:07.989Z,100662.87
2019-02-28T04:12:44.926Z,100668.98
2019-02-28T04:15:11.311Z,100668.56
2019-02-28T04:17:41.116Z,100659.80
2019-02-28T04:20:10.959Z,100659.80
2019-02-28T04:22:40.839Z,100683.33
2019-02-28T04:25:10.714Z,100665.94
2019-02-28T04:27:41.822Z,100665.94
2019-02-28T04:30:12.498Z,100667.63
2019-02-28T04:32:42.076Z,100511.93
2019-02-28T04:35:11.973Z,100669.20
2019-02-28T04:37:46.810Z,100672.66
2019-02-28T04:40:13.200Z,100667.02
2019-02-28T04:42:43.075Z,100667.31
2019-02-28T04:45:13.181Z,100676.74
2019-02-28T04:47:42.888Z,100679.35
2019-02-28T04:50:15.858Z,100679.35
2019-02-28T04:52:47.886Z,100689.78
2019-02-28T04:55:17.224Z,100696.30
2019-02-28T04:57:46.887Z,100688.42
2019-02-28T05:00:16.954Z,100700.16
2019-02-28T05:02:46.648Z,100692.38
2019-02-28T05:05:16.371Z,100694.94
2019-02-28T05:07:46.430Z,100694.94
2019-02-28T05:10:19.225Z,100694.93
2019-02-28T05:12:47.711Z,100697.53
2019-02-28T05:15:17.713Z,100690.19
2019-02-28T05:17:47.382Z,100690.19
2019-02-28T05:20:16.995Z,100689.34
2019-02-28T05:22:46.741Z,100689.96
2019-02-28T05:25:18.693Z,100689.96
2019-02-28T05:27:48.131Z,100689.20
2019-02-28T05:30:19.588Z,100689.20
2019-02-28T05:32:49.523Z,100691.46
2019-02-28T05:35:19.090Z,100687.65
2019-02-28T05:37:48.655Z,100694.64
2019-02-28T05:40:18.560Z,100691.63
2019-02-28T05:42:48.257Z,100706.16
2019-02-28T05:45:17.915Z,100713.09
2019-02-28T05:47:47.846Z,100716.89
2019-02-28T05:50:18.836Z,100716.89
2019-02-28T05:52:48.482Z,100712.91
2019-02-28T05:55:18.199Z,100708.47
2019-02-28T05:57:47.903Z,100718.02
2019-02-28T06:00:19.198Z,100715.41
2019-02-28T06:02:48.970Z,100715.41
2019-02-28T06:05:18.610Z,100713.56
2019-02-28T06:07:48.644Z,100710.55
2019-02-28T06:10:23.502Z,100710.55
2019-02-28T06:12:49.990Z,100719.66
2019-02-28T06:15:19.785Z,100709.53
2019-02-28T06:17:54.664Z,100709.53
2019-02-28T06:20:21.194Z,100718.72
2019-02-28T06:22:51.011Z,100728.13
2019-02-28T06:25:24.086Z,100728.13
2019-02-28T06:27:52.315Z,100723.80
2019-02-28T06:30:22.594Z,100722.80
2019-02-28T06:32:57.638Z,100727.11
2019-02-28T06:35:23.957Z,100727.11
2019-02-28T06:37:53.771Z,100731.92
2019-02-28T06:40:23.652Z,100737.97
2019-02-28T06:42:53.533Z,100738.37
2019-02-28T06:45:23.251Z,100730.61
2019-02-28T06:47:52.817Z,100730.61
2019-02-28T06:50:22.781Z,100732.41
2019-02-28T06:52:52.534Z,100747.77
2019-02-28T06:55:24.607Z,100747.77
2019-02-28T06:57:54.328Z,100753.53
2019-02-28T07:00:24.150Z,100760.45
2019-02-28T07:02:54.038Z,100764.78
2019-02-28T07:05:25.863Z,100767.33
2019-02-28T07:07:55.246Z,100771.30
2019-02-28T07:10:25.097Z,100770.95
2019-02-28T07:12:54.725Z,100772.75
2019-02-28T07:15:24.995Z,100773.41
2019-02-28T07:17:54.617Z,100773.41
2019-02-28T07:20:24.207Z,100766.42
2019-02-28T07:22:55.670Z,100772.05
2019-02-28T07:25:25.454Z,100772.05
2019-02-28T07:27:55.316Z,100778.14
2019-02-28T07:30:24.965Z,100781.65
2019-02-28T07:32:54.557Z,100783.44
2019-02-28T07:35:24.282Z,100793.47
2019-02-28T07:37:54.611Z,100792.16
2019-02-28T07:40:24.194Z,100794.75
2019-02-28T07:42:53.970Z,100794.05
2019-02-28T07:45:23.774Z,100808.11
2019-02-28T07:47:53.375Z,100812.48
2019-02-28T07:50:23.028Z,100812.48
2019-02-28T07:52:53.233Z,100819.50
2019-02-28T07:55:22.940Z,100819.50
2019-02-28T07:57:56.298Z,100810.83
2019-02-28T08:00:24.392Z,100810.83
2019-02-28T08:02:54.151Z,100811.73
2019-02-28T08:05:29.950Z,100807.52
2019-02-28T08:07:55.386Z,100808.52
2019-02-28T08:10:25.100Z,100801.57
2019-02-28T08:12:54.743Z,100801.57
2019-02-28T08:15:24.759Z,100793.69
2019-02-28T08:17:54.498Z,100803.47
2019-02-28T08:20:24.320Z,100800.86
2019-02-28T08:22:56.544Z,100798.31
2019-02-28T08:25:25.522Z,100813.20
2019-02-28T08:27:59.151Z,100813.20
2019-02-28T08:30:26.818Z,100805.48
2019-02-28T08:32:57.015Z,100805.48
2019-02-28T08:35:26.754Z,100807.30
2019-02-28T08:37:57.377Z,100806.84
2019-02-28T08:40:27.353Z,100814.31
2019-02-28T08:42:57.252Z,100808.34
2019-02-28T08:45:32.844Z,100808.34
2019-02-28T08:47:58.659Z,100804.05
2019-02-28T08:50:28.367Z,100811.57
2019-02-28T08:52:59.621Z,100806.44
2019-02-28T08:55:29.511Z,100800.84
2019-02-28T08:58:05.098Z,100798.70
2019-02-28T09:00:33.273Z,100809.80
2019-02-28T09:03:03.284Z,100809.80
2019-02-28T09:05:33.092Z,100811.99
2019-02-28T09:08:02.763Z,100816.08
2019-02-28T09:10:32.532Z,100816.08
2019-02-28T09:13:02.338Z,100809.12
2019-02-28T09:15:32.152Z,100808.31
2019-02-28T09:18:02.044Z,100801.39
2019-02-28T09:20:32.065Z,100792.23
2019-02-28T09:23:03.127Z,100804.16
2019-02-28T09:25:33.256Z,100800.69
2019-02-28T09:28:02.897Z,100805.63
2019-02-28T09:30:35.358Z,100805.63
2019-02-28T09:33:04.970Z,100813.09
2019-02-28T09:35:34.611Z,100819.25
2019-02-28T09:38:08.032Z,100823.70
2019-02-28T09:40:35.698Z,100818.49
2019-02-28T09:43:05.271Z,100828.11
2019-02-28T09:45:35.028Z,100829.08
2019-02-28T09:48:04.949Z,100835.38
2019-02-28T09:50:34.480Z,100824.94
2019-02-28T09:53:04.106Z,100829.41
2019-02-28T09:55:35.355Z,100827.73
2019-02-28T09:58:05.101Z,100818.20
2019-02-28T10:00:35.171Z,100817.80
2019-02-28T10:03:06.771Z,100818.31
2019-02-28T10:05:38.836Z,100820.09
2019-02-28T10:08:07.726Z,100820.09
2019-02-28T10:10:37.523Z,100820.94
2019-02-28T10:13:07.346Z,100807.84
2019-02-28T10:15:38.686Z,100804.37
2019-02-28T10:18:08.460Z,100807.01
2019-02-28T10:20:38.324Z,100809.61
2019-02-28T10:23:07.954Z,100812.70
2019-02-28T10:25:43.369Z,100804.38
2019-02-28T10:28:08.990Z,100801.75
2019-02-28T10:30:38.977Z,100813.13
2019-02-28T10:33:08.515Z,100816.62
2019-02-28T10:35:38.174Z,100818.39
2019-02-28T10:38:07.833Z,100837.64
2019-02-28T10:40:37.517Z,100841.13
2019-02-28T10:43:07.229Z,100851.64
2019-02-28T10:45:41.276Z,100845.06
2019-02-28T10:48:08.430Z,100846.84
2019-02-28T10:50:38.313Z,100852.53
2019-02-28T10:53:08.207Z,100705.41
2019-02-28T10:55:37.942Z,100849.47
2019-02-28T10:58:07.967Z,100851.20
2019-02-28T11:00:40.238Z,100845.09
2019-02-28T11:03:10.319Z,100849.92
2019-02-28T11:05:41.306Z,100856.93
2019-02-28T11:08:16.364Z,100849.91
2019-02-28T11:10:45.656Z,100845.08
2019-02-28T11:13:17.221Z,100848.61
2019-02-28T11:15:48.364Z,100847.31
2019-02-28T11:18:18.883Z,100860.02
2019-02-28T11:20:48.536Z,100852.55
2019-02-28T11:23:18.447Z,100852.12
2019-02-28T11:25:48.176Z,100854.75
2019-02-28T11:28:17.713Z,100854.75
2019-02-28T11:30:47.913Z,100856.03
2019-02-28T11:33:17.929Z,100855.14
2019-02-28T11:35:47.867Z,100696.26
2019-02-28T11:38:21.534Z,100851.62
2019-02-28T11:40:57.059Z,100848.08
2019-02-28T11:43:20.767Z,100848.06
2019-02-28T11:45:50.782Z,100845.91
2019-02-28T11:48:20.919Z,100840.64
2019-02-28T11:50:50.626Z,100837.52
2019-02-28T11:53:20.413Z,100838.38
2019-02-28T11:55:53.251Z,100846.31
2019-02-28T11:58:21.843Z,100839.27
2019-02-28T12:00:51.456Z,100847.17
2019-02-28T12:03:21.110Z,100848.08
2019-02-28T12:05:51.400Z,100854.66
2019-02-28T12:08:22.417Z,100856.88
2019-02-28T12:10:52.249Z,100857.74
2019-02-28T12:13:21.880Z,100859.92
2019-02-28T12:15:51.567Z,100865.64
2019-02-28T12:18:21.379Z,100865.64
2019-02-28T12:20:51.096Z,100870.51
2019-02-28T12:23:23.521Z,100862.19
2019-02-28T12:25:52.487Z,100861.33
2019-02-28T12:28:22.004Z,100864.84
2019-02-28T12:30:51.733Z,100869.19
2019-02-28T12:33:23.395Z,100871.81
2019-02-28T12:35:54.728Z,100863.97
2019-02-28T12:38:25.942Z,100860.45
2019-02-28T12:40:55.716Z,100857.41
2019-02-28T12:43:25.461Z,100869.67
2019-02-28T12:45:56.902Z,100866.58
2019-02-28T12:48:27.254Z,100865.71
2019-02-28T12:50:57.173Z,100869.61
2019-02-28T12:53:26.873Z,100863.04
2019-02-28T12:55:57.971Z,100864.82
2019-02-28T12:58:36.156Z,100863.96
2019-02-28T13:01:00.054Z,100868.77
2019-02-28T13:03:30.795Z,100865.24
2019-02-28T13:06:00.548Z,100859.55
2019-02-28T13:08:30.309Z,100856.95
2019-02-28T13:11:04.498Z,100866.14
2019-02-28T13:13:31.936Z,100866.14
2019-02-28T13:16:01.706Z,100869.21
2019-02-28T13:18:31.326Z,100875.33
2019-02-28T13:21:01.356Z,100873.59
2019-02-28T13:23:32.935Z,100871.81
2019-02-28T13:26:02.674Z,100869.19
2019-02-28T13:28:32.656Z,100875.30
2019-02-28T13:31:02.528Z,100877.05
2019-02-28T13:33:32.838Z,100880.55
2019-02-28T13:36:02.638Z,100878.82
2019-02-28T13:38:32.257Z,100874.45
2019-02-28T13:41:02.090Z,100876.20
2019-02-28T13:43:32.166Z,100878.37
2019-02-28T13:46:01.901Z,100875.76
2019-02-28T13:48:33.943Z,100875.31
2019-02-28T13:51:08.023Z,100725.08
2019-02-28T13:53:35.391Z,100870.92
2019-02-28T13:56:05.140Z,100865.22
2019-02-28T13:58:34.723Z,100869.17
2019-02-28T14:01:04.880Z,100873.56
2019-02-28T14:03:34.660Z,100871.77
2019-02-28T14:06:04.274Z,100877.91
2019-02-28T14:08:34.190Z,100870.02
2019-02-28T14:11:05.823Z,100871.75
2019-02-28T14:13:35.306Z,100865.62
2019-02-28T14:16:06.013Z,100870.89
2019-02-28T14:18:35.719Z,100871.71
2019-02-28T14:21:05.589Z,100881.28
2019-02-28T14:23:35.461Z,100824.10
2019-02-28T14:26:05.241Z,100883.69
2019-02-28T14:28:35.577Z,100888.92
2019-02-28T14:31:06.116Z,100888.05
2019-02-28T14:33:35.994Z,100883.67
2019-02-28T14:36:07.475Z,100876.65
2019-02-28T14:38:37.203Z,100872.17
2019-02-28T14:41:06.742Z,100872.17
2019-02-28T14:43:36.335Z,100884.02
2019-02-28T14:46:06.248Z,100875.70
2019-02-28T14:48:36.648Z,100880.03
2019-02-28T14:51:07.323Z,100868.72
2019-02-28T14:53:36.949Z,100862.95
2019-02-28T14:56:07.447Z,100862.95
2019-02-28T14:58:38.176Z,100866.84
2019-02-28T15:01:08.141Z,100861.53
2019-02-28T15:03:37.779Z,100868.53
2019-02-28T15:06:08.172Z,100870.73
2019-02-28T15:08:38.336Z,100861.53
2019-02-28T15:11:10.204Z,100867.59
2019-02-28T15:13:40.379Z,100864.97
2019-02-28T15:16:10.148Z,100864.97
2019-02-28T15:18:40.007Z,100862.77
2019-02-28T15:21:09.830Z,100866.25
2019-02-28T15:23:39.644Z,100859.70
2019-02-28T15:26:09.254Z,100863.17
2019-02-28T15:28:38.939Z,100858.33
2019-02-28T15:31:09.425Z,100867.92
2019-02-28T15:33:39.149Z,100867.92
2019-02-28T15:36:09.007Z,100863.14
2019-02-28T15:38:41.939Z,100868.25
2019-02-28T15:41:10.615Z,100866.91
2019-02-28T15:43:40.517Z,100874.31
2019-02-28T15:46:11.974Z,100869.95
2019-02-28T15:48:41.965Z,100869.95
2019-02-28T15:51:12.909Z,100880.83
2019-02-28T15:53:42.578Z,100881.25
2019-02-28T15:56:13.612Z,100880.33
2019-02-28T15:58:44.385Z,100879.98
2019-02-28T16:01:14.543Z,100875.20
2019-02-28T16:03:44.153Z,100873.89
2019-02-28T16:06:16.360Z,100876.05
2019-02-28T16:08:46.853Z,100873.92
2019-02-28T16:11:16.826Z,100880.40
2019-02-28T16:13:46.610Z,100878.20
2019-02-28T16:16:16.340Z,100882.98
2019-02-28T16:18:47.338Z,100882.98
2019-02-28T16:21:17.727Z,100890.84
2019-02-28T16:23:47.501Z,100881.25
2019-02-28T16:26:18.321Z,100878.52
2019-02-28T16:28:48.777Z,100872.33
2019-02-28T16:31:18.824Z,100872.78
2019-02-28T16:33:48.513Z,100862.66
2019-02-28T16:36:18.405Z,100870.89
2019-02-28T16:38:47.950Z,100870.39
2019-02-28T16:41:17.551Z,100873.02
2019-02-28T16:43:47.399Z,100868.58
2019-02-28T16:46:17.042Z,100872.47
2019-02-28T16:48:46.791Z,100878.96
2019-02-28T16:51:16.757Z,100881.95
2019-02-28T16:53:47.921Z,100878.88
2019-02-28T16:56:17.892Z,100884.11
2019-02-28T16:58:47.459Z,100890.93
2019-02-28T17:01:17.502Z,100890.93
2019-02-28T17:03:48.675Z,100893.50
2019-02-28T17:06:18.264Z,100900.55
2019-02-28T17:08:57.307Z,100897.55
2019-02-28T17:11:27.007Z,100905.36
2019-02-28T17:14:04.711Z,100912.75
2019-02-28T17:16:42.214Z,100915.41
2019-02-28T17:19:12.261Z,100918.97
2019-02-28T17:21:41.851Z,100924.19
2019-02-28T17:24:12.160Z,100925.92
2019-02-28T17:27:07.801Z,100929.42
2019-02-28T17:30:00.549Z,100934.70
2019-02-28T17:32:32.188Z,100927.70
2019-02-28T17:35:02.079Z,100915.41
2019-02-28T17:37:31.703Z,100927.64
2019-02-28T17:40:01.891Z,100923.25
2019-02-28T17:42:31.601Z,100904.33
2019-02-28T17:45:15.590Z,100904.33
2019-02-28T17:48:23.070Z,100926.72
2019-02-28T17:51:34.857Z,100821.31
2019-02-28T17:54:42.084Z,100923.15
2019-02-28T17:57:26.266Z,100936.13
2019-02-28T18:00:28.849Z,100936.16
2019-02-28T18:03:36.295Z,100936.16
2019-02-28T18:07:07.574Z,100938.85
2019-02-28T18:10:25.087Z,100936.57
2019-02-28T18:13:22.252Z,100954.16
2019-02-28T18:16:48.173Z,100954.16
2019-02-28T18:19:41.168Z,100950.44
2019-02-28T18:22:38.001Z,100943.43
2019-02-28T18:25:53.280Z,100944.31
2019-02-28T18:28:50.320Z,100951.86
2019-02-28T18:31:22.176Z,100953.19
2019-02-28T18:34:06.987Z,100953.19
2019-02-28T18:36:36.617Z,100953.25
2019-02-28T18:39:11.631Z,100936.41
2019-02-28T18:41:42.162Z,100936.41
2019-02-28T18:44:11.766Z,100943.05
2019-02-28T18:46:41.412Z,100947.58
2019-02-28T18:49:11.080Z,100947.58
2019-02-28T18:51:41.125Z,100939.86
2019-02-28T18:54:10.919Z,100939.86
2019-02-28T18:56:44.199Z,100935.52
2019-02-28T18:59:13.970Z,100937.77
2019-02-28T19:01:43.917Z,100937.77
2019-02-28T19:04:13.969Z,100944.78
2019-02-28T19:06:43.817Z,100943.41
2019-02-28T19:09:24.437Z,100948.10
2019-02-28T19:11:54.091Z,100954.28
2019-02-28T19:14:23.816Z,100943.05
2019-02-28T19:16:53.736Z,100944.66
2019-02-28T19:19:23.666Z,100944.66
2019-02-28T19:21:56.070Z,100954.14
2019-02-28T19:24:26.863Z,100951.73
2019-02-28T19:26:56.497Z,100949.34
2019-02-28T19:29:26.244Z,100961.38
2019-02-28T19:31:56.059Z,100961.38
2019-02-28T19:34:25.882Z,100956.91
2019-02-28T19:36:55.623Z,100957.80
2019-02-28T19:39:25.407Z,100955.16
2019-02-28T19:41:55.136Z,100955.16
2019-02-28T19:44:24.980Z,100963.64
2019-02-28T19:46:54.890Z,100963.64
2019-02-28T19:49:24.627Z,100964.65
2019-02-28T19:51:54.392Z,100964.98
2019-02-28T19:54:24.901Z,100959.19
2019-02-28T19:56:54.681Z,100966.30
2019-02-28T19:59:24.374Z,100966.30
2019-02-28T20:01:54.702Z,100964.25
2019-02-28T20:04:25.009Z,100969.33
2019-02-28T20:06:55.015Z,100976.98
2019-02-28T20:09:24.872Z,100976.98
2019-02-28T20:11:55.709Z,100978.95
2019-02-28T20:14:25.458Z,100975.84
2019-02-28T20:16:55.403Z,100975.84
2019-02-28T20:19:25.474Z,100982.20
2019-02-28T20:21:55.393Z,100982.20
2019-02-28T20:24:25.473Z,100978.69
2019-02-28T20:26:55.165Z,100983.52
2019-02-28T20:29:24.963Z,100983.95
2019-02-28T20:31:54.727Z,100982.60
2019-02-28T20:34:24.396Z,100978.46
2019-02-28T20:36:54.250Z,100977.25
2019-02-28T20:39:24.086Z,100973.23
2019-02-28T20:41:54.032Z,100986.78
2019-02-28T20:44:24.448Z,100987.16
2019-02-28T20:46:54.107Z,100983.15
2019-02-28T20:49:23.848Z,100971.92
2019-02-28T20:51:55.323Z,100971.92
2019-02-28T20:54:25.024Z,100975.52
2019-02-28T20:56:54.785Z,100968.73
2019-02-28T20:59:24.602Z,100972.65
2019-02-28T21:01:54.313Z,100963.30
2019-02-28T21:04:24.079Z,100963.30
2019-02-28T21:06:53.902Z,100971.72
2019-02-28T21:09:23.849Z,100971.72
2019-02-28T21:11:53.880Z,100964.61
2019-02-28T21:14:23.612Z,100960.33
2019-02-28T21:16:53.306Z,100961.23
2019-02-28T21:19:23.188Z,100961.04
2019-02-28T21:21:52.982Z,100954.42
2019-02-28T21:24:22.600Z,100963.86
2019-02-28T21:26:52.432Z,100965.50
2019-02-28T21:29:22.252Z,100966.50
2019-02-28T21:31:51.854Z,100969.72
2019-02-28T21:34:21.820Z,100969.72
2019-02-28T21:36:51.889Z,100975.06
2019-02-28T21:39:21.534Z,100971.16
2019-02-28T21:41:51.318Z,100968.83
2019-02-28T21:44:21.101Z,100972.26
2019-02-28T21:46:50.792Z,100963.06
2019-02-28T21:49:20.566Z,100963.72
2019-02-28T21:51:50.341Z,100968.04
2019-02-28T21:54:20.136Z,100962.86
2019-02-28T21:56:50.104Z,100968.92
2019-02-28T21:59:19.799Z,100971.80
2019-02-28T22:01:49.880Z,100978.16
2019-02-28T22:04:19.744Z,100979.75
2019-02-28T22:06:49.473Z,100984.89
2019-02-28T22:09:18.969Z,100989.71
2019-02-28T22:11:48.992Z,100986.31
2019-02-28T22:14:18.861Z,100991.25
2019-02-28T22:16:48.763Z,100987.14
2019-02-28T22:19:18.979Z,100989.74
2019-02-28T22:21:48.761Z,100997.94
2019-02-28T22:24:18.515Z,100998.05
2019-02-28T22:26:48.447Z,100990.16
2019-02-28T22:29:18.181Z,100997.90
2019-02-28T22:32:06.963Z,100993.49
2019-02-28T22:34:41.410Z,100993.43
2019-02-28T22:37:11.311Z,100992.55
2019-02-28T22:39:41.018Z,100987.72
2019-02-28T22:42:21.419Z,100986.78
2019-02-28T22:44:42.088Z,100989.28
2019-02-28T22:47:11.696Z,100991.03
2019-02-28T22:49:41.358Z,100987.22
2019-02-28T22:52:11.183Z,100987.60
2019-02-28T22:54:40.843Z,100977.97
2019-02-28T22:57:10.436Z,100982.76
2019-02-28T22:59:40.309Z,100987.07
2019-02-28T23:02:11.088Z,100972.29
2019-02-28T23:04:41.015Z,100972.37
2019-02-28T23:07:11.009Z,100967.09
2019-02-28T23:09:40.734Z,100970.87
2019-02-28T23:12:10.547Z,100970.27
2019-02-28T23:14:40.096Z,100964.62
2019-02-28T23:17:09.720Z,100961.27
2019-02-28T23:19:40.050Z,100962.75
2019-02-28T23:22:09.574Z,100973.75
2019-02-28T23:24:39.269Z,100977.15
2019-02-28T23:27:19.483Z,100977.81
2019-02-28T23:30:18.899Z,100966.79
2019-02-28T23:32:54.052Z,100963.61
2019-02-28T23:35:43.786Z,100959.18
2019-02-28T23:38:13.735Z,100957.17
2019-02-28T23:40:43.465Z,100958.06
2019-02-28T23:43:13.238Z,100958.92
2019-02-28T23:45:43.071Z,100955.02
2019-02-28T23:48:12.798Z,100950.94
2019-02-28T23:50:42.465Z,100957.71
2019-02-28T23:53:12.421Z,100952.52
2019-02-28T23:55:42.136Z,100948.62
2019-02-28T23:58:11.644Z,100946.40
